PWSweather.com
Personal Weather Stations
Station Observations
KMAMEDFI2
Medfield, MA 02052

Medfield, MA 02052

Lat: 42.1900822, Lon: -71.3296889

Elevation: 138

Station Type: Rainwise WS MK-III

http://www.medfieldweather.com

High Low Average
Temperature 64.4°F18.0°C 31.9°F-0.1°C 48.8°F9.3°C
Dew Point 35.2°F1.8°C 24.6°F-4.1°C 30.9°F-0.6°C
Winds 8.1 mph 13.0 kmh Calm Calm 2.0 mph SW3.2 kmh SW
Wind Gusts 16.1 mph25.9 kmh -- 3.0 mph4.8 kmh
Humidity 95% 23% 55%
Pressure 30.26 in1024.7 mb 30.05 in1017.6 mb -
Precipitation 0.00 in0.0 mm - -
Hour Temp Dew Point Humidity Winds Wind Gusts Pressure Precip Precip Rate Daily Precip Total
12:20 AM 43.4°F6.3°C 30.4°F-0.9°C 60% 3.5 mph W5.6 kmh W 5.8 mph9.3 kmh 30.05 in1017.6 mb - 0.00 in0.0 mm 0.00 in0.0 mm
12:30 AM 43.4°F6.3°C 30.9°F-0.6°C 61% Calm Calm -- 30.05 in1017.6 mb - 0.00 in0.0 mm 0.00 in0.0 mm
12:40 AM 43.4°F6.3°C 31.2°F-0.4°C 62% Calm Calm 1.2 mph1.9 kmh 30.06 in1017.9 mb - 0.00 in0.0 mm 0.00 in0.0 mm
12:50 AM 43.4°F6.3°C 31.2°F-0.4°C 62% 1.2 mph W1.9 kmh W 2.3 mph3.7 kmh 30.06 in1017.9 mb - 0.00 in0.0 mm 0.00 in0.0 mm
01:00 AM 43.2°F6.2°C 32.6°F0.3°C 66% Calm Calm -- 30.06 in1017.9 mb - 0.00 in0.0 mm 0.00 in0.0 mm
01:10 AM 43.1°F6.2°C 32.1°F0.1°C 65% 1.2 mph W1.9 kmh W -- 30.06 in1017.9 mb - 0.00 in0.0 mm 0.00 in0.0 mm
01:20 AM 42.9°F6.1°C 31.9°F-0.1°C 65% 2.3 mph WSW3.7 kmh WSW 2.3 mph3.7 kmh 30.06 in1017.9 mb - 0.00 in0.0 mm 0.00 in0.0 mm
01:30 AM 42.6°F5.9°C 32.8°F0.4°C 68% Calm Calm -- 30.07 in1018.3 mb - 0.00 in0.0 mm 0.00 in0.0 mm
01:40 AM 41.8°F5.4°C 32.0°F0.0°C 68% Calm Calm 2.3 mph3.7 kmh 30.06 in1017.9 mb - 0.00 in0.0 mm 0.00 in0.0 mm
01:50 AM 41.3°F5.2°C 32.2°F0.1°C 70% Calm Calm -- 30.06 in1017.9 mb - 0.00 in0.0 mm 0.00 in0.0 mm
02:00 AM 40.4°F4.7°C 32.1°F0.1°C 72% 1.2 mph WNW1.9 kmh WNW 1.2 mph1.9 kmh 30.05 in1017.6 mb - 0.00 in0.0 mm 0.00 in0.0 mm
02:10 AM 39.9°F4.4°C 31.9°F-0.1°C 73% 1.2 mph NNW1.9 kmh NNW 1.2 mph1.9 kmh 30.05 in1017.6 mb - 0.00 in0.0 mm 0.00 in0.0 mm
02:20 AM 39.5°F4.2°C 32.5°F0.3°C 76% Calm Calm -- 30.05 in1017.6 mb - 0.00 in0.0 mm 0.00 in0.0 mm
02:30 AM 38.5°F3.6°C 31.6°F-0.2°C 76% Calm Calm -- 30.05 in1017.6 mb - 0.00 in0.0 mm 0.00 in0.0 mm
02:40 AM 38.9°F3.8°C 32.3°F0.2°C 77% Calm Calm -- 30.05 in1017.6 mb - 0.00 in0.0 mm 0.00 in0.0 mm
02:50 AM 38.7°F3.7°C 32.4°F0.2°C 78% Calm Calm -- 30.05 in1017.6 mb - 0.00 in0.0 mm 0.00 in0.0 mm
03:00 AM 38.5°F3.6°C 32.3°F0.2°C 78% Calm Calm -- 30.05 in1017.6 mb - 0.00 in0.0 mm 0.00 in0.0 mm
03:10 AM 37.8°F3.2°C 31.9°F-0.1°C 79% Calm Calm -- 30.05 in1017.6 mb - 0.00 in0.0 mm 0.00 in0.0 mm
03:20 AM 37.6°F3.1°C 32.3°F0.2°C 81% Calm Calm -- 30.05 in1017.6 mb - 0.00 in0.0 mm 0.00 in0.0 mm
03:30 AM 37.3°F2.9°C 32.3°F0.2°C 82% Calm Calm -- 30.05 in1017.6 mb - 0.00 in0.0 mm 0.00 in0.0 mm
03:40 AM 36.6°F2.6°C 32.0°F0.0°C 83% Calm Calm -- 30.05 in1017.6 mb - 0.00 in0.0 mm 0.00 in0.0 mm
03:50 AM 36.3°F2.4°C 32.0°F0.0°C 84% Calm Calm -- 30.05 in1017.6 mb - 0.00 in0.0 mm 0.00 in0.0 mm
04:00 AM 35.9°F2.2°C 31.6°F-0.2°C 84% Calm Calm -- 30.05 in1017.6 mb - 0.00 in0.0 mm 0.00 in0.0 mm
04:10 AM 35.1°F1.7°C 31.4°F-0.3°C 86% Calm Calm -- 30.05 in1017.6 mb - 0.00 in0.0 mm 0.00 in0.0 mm
04:20 AM 34.3°F1.3°C 31.4°F-0.3°C 89% Calm Calm -- 30.05 in1017.6 mb - 0.00 in0.0 mm 0.00 in0.0 mm
04:30 AM 33.3°F0.7°C 31.0°F-0.6°C 91% Calm Calm -- 30.05 in1017.6 mb - 0.00 in0.0 mm 0.00 in0.0 mm
04:40 AM 33.7°F0.9°C 31.4°F-0.3°C 91% Calm Calm -- 30.05 in1017.6 mb - 0.00 in0.0 mm 0.00 in0.0 mm
04:50 AM 33.5°F0.8°C 31.2°F-0.4°C 91% Calm Calm -- 30.05 in1017.6 mb - 0.00 in0.0 mm 0.00 in0.0 mm
05:00 AM 33.2°F0.7°C 31.4°F-0.3°C 93% 1.2 mph NNW1.9 kmh NNW 1.2 mph1.9 kmh 30.05 in1017.6 mb - 0.00 in0.0 mm 0.00 in0.0 mm
05:10 AM 33.9°F1.1°C 31.5°F-0.3°C 91% Calm Calm -- 30.05 in1017.6 mb - 0.00 in0.0 mm 0.00 in0.0 mm
05:20 AM 33.9°F1.1°C 32.1°F0.1°C 93% Calm Calm -- 30.05 in1017.6 mb - 0.00 in0.0 mm 0.00 in0.0 mm
05:30 AM 33.3°F0.7°C 32.0°F0.0°C 95% Calm Calm -- 30.05 in1017.6 mb - 0.00 in0.0 mm 0.00 in0.0 mm
05:40 AM 33.0°F0.6°C 31.7°F-0.2°C 95% Calm Calm -- 30.06 in1017.9 mb - 0.00 in0.0 mm 0.00 in0.0 mm
05:50 AM 32.6°F0.3°C 31.3°F-0.4°C 95% Calm Calm -- 30.06 in1017.9 mb - 0.00 in0.0 mm 0.00 in0.0 mm
06:00 AM 32.3°F0.2°C 31.0°F-0.6°C 95% Calm Calm -- 30.07 in1018.3 mb - 0.00 in0.0 mm 0.00 in0.0 mm
06:10 AM 31.9°F-0.1°C 30.7°F-0.7°C 95% Calm Calm -- 30.07 in1018.3 mb - 0.00 in0.0 mm 0.00 in0.0 mm
06:20 AM 32.1°F0.1°C 30.8°F-0.7°C 95% Calm Calm -- 30.08 in1018.6 mb - 0.00 in0.0 mm 0.00 in0.0 mm
06:30 AM 32.8°F0.4°C 31.5°F-0.3°C 95% Calm Calm -- 30.07 in1018.3 mb - 0.00 in0.0 mm 0.00 in0.0 mm
06:40 AM 33.2°F0.7°C 31.9°F-0.1°C 95% Calm Calm -- 30.08 in1018.6 mb - 0.00 in0.0 mm 0.00 in0.0 mm
06:50 AM 33.5°F0.8°C 32.2°F0.1°C 95% Calm Calm -- 30.08 in1018.6 mb - 0.00 in0.0 mm 0.00 in0.0 mm
07:00 AM 33.9°F1.1°C 32.6°F0.3°C 95% Calm Calm -- 30.09 in1019.0 mb - 0.00 in0.0 mm 0.00 in0.0 mm
07:10 AM 34.6°F1.4°C 33.3°F0.7°C 95% Calm Calm -- 30.09 in1019.0 mb - 0.00 in0.0 mm 0.00 in0.0 mm
07:20 AM 36.1°F2.3°C 34.8°F1.6°C 95% Calm Calm -- 30.10 in1019.3 mb - 0.00 in0.0 mm 0.00 in0.0 mm
07:30 AM 38.1°F3.4°C 35.1°F1.7°C 89% Calm Calm -- 30.11 in1019.6 mb - 0.00 in0.0 mm 0.00 in0.0 mm
07:40 AM 40.2°F4.6°C 33.9°F1.1°C 78% 2.3 mph NNW3.7 kmh NNW 2.3 mph3.7 kmh 30.12 in1020.0 mb - 0.00 in0.0 mm 0.00 in0.0 mm
07:50 AM 42.7°F5.9°C 33.5°F0.8°C 70% 2.3 mph WSW3.7 kmh WSW 2.3 mph3.7 kmh 30.13 in1020.3 mb - 0.00 in0.0 mm 0.00 in0.0 mm
08:00 AM 45.0°F7.2°C 34.3°F1.3°C 66% 2.3 mph WNW3.7 kmh WNW 5.8 mph9.3 kmh 30.13 in1020.3 mb - 0.00 in0.0 mm 0.00 in0.0 mm
08:10 AM 46.2°F7.9°C 32.7°F0.4°C 59% 1.2 mph N1.9 kmh N 1.2 mph1.9 kmh 30.14 in1020.7 mb - 0.00 in0.0 mm 0.00 in0.0 mm
08:20 AM 47.7°F8.7°C 32.3°F0.2°C 55% 3.5 mph NW5.6 kmh NW 5.8 mph9.3 kmh 30.15 in1021.0 mb - 0.00 in0.0 mm 0.00 in0.0 mm
08:30 AM 49.0°F9.4°C 31.1°F-0.5°C 50% 3.5 mph NE5.6 kmh NE 5.8 mph9.3 kmh 30.15 in1021.0 mb - 0.00 in0.0 mm 0.00 in0.0 mm
08:40 AM 49.7°F9.8°C 31.3°F-0.4°C 49% 1.2 mph SW1.9 kmh SW 3.5 mph5.6 kmh 30.16 in1021.3 mb - 0.00 in0.0 mm 0.00 in0.0 mm
08:50 AM 50.6°F10.3°C 30.0°F-1.1°C 45% 4.6 mph NNE7.4 kmh NNE 5.8 mph9.3 kmh 30.17 in1021.7 mb - 0.00 in0.0 mm 0.00 in0.0 mm
09:00 AM 50.9°F10.5°C 30.9°F-0.6°C 46% 1.2 mph SE1.9 kmh SE 2.3 mph3.7 kmh 30.17 in1021.7 mb - 0.00 in0.0 mm 0.00 in0.0 mm
09:10 AM 51.5°F10.8°C 31.4°F-0.3°C 46% 4.6 mph NW7.4 kmh NW 8.1 mph13.0 kmh 30.18 in1022.0 mb - 0.00 in0.0 mm 0.00 in0.0 mm
09:20 AM 51.8°F11.0°C 30.6°F-0.8°C 44% 4.6 mph E7.4 kmh E 2.3 mph3.7 kmh 30.18 in1022.0 mb - 0.00 in0.0 mm 0.00 in0.0 mm
09:30 AM 52.4°F11.3°C 30.5°F-0.8°C 43% 3.5 mph NNE5.6 kmh NNE 2.3 mph3.7 kmh 30.19 in1022.4 mb - 0.00 in0.0 mm 0.00 in0.0 mm
09:40 AM 52.7°F11.5°C 28.4°F-2.0°C 39% 4.6 mph SE7.4 kmh SE 3.5 mph5.6 kmh 30.19 in1022.4 mb - 0.00 in0.0 mm 0.00 in0.0 mm
09:50 AM 52.8°F11.6°C 29.7°F-1.3°C 41% 5.8 mph E9.3 kmh E 5.8 mph9.3 kmh 30.19 in1022.4 mb - 0.00 in0.0 mm 0.00 in0.0 mm
10:00 AM 53.3°F11.8°C 30.2°F-1.0°C 41% 4.6 mph S7.4 kmh S 6.9 mph11.1 kmh 30.19 in1022.4 mb - 0.00 in0.0 mm 0.00 in0.0 mm
10:10 AM 53.9°F12.2°C 31.3°F-0.4°C 42% 3.5 mph WSW5.6 kmh WSW 2.3 mph3.7 kmh 30.19 in1022.4 mb - 0.00 in0.0 mm 0.00 in0.0 mm
10:20 AM 54.1°F12.3°C 30.9°F-0.6°C 41% 3.5 mph E5.6 kmh E 5.8 mph9.3 kmh 30.19 in1022.4 mb - 0.00 in0.0 mm 0.00 in0.0 mm
10:30 AM 54.8°F12.7°C 31.5°F-0.3°C 41% 3.5 mph NW5.6 kmh NW 5.8 mph9.3 kmh 30.19 in1022.4 mb - 0.00 in0.0 mm 0.00 in0.0 mm
10:40 AM 55.3°F12.9°C 29.4°F-1.4°C 37% 3.5 mph NNW5.6 kmh NNW 8.1 mph13.0 kmh 30.19 in1022.4 mb - 0.00 in0.0 mm 0.00 in0.0 mm
10:50 AM 55.0°F12.8°C 29.2°F-1.6°C 37% 6.9 mph WSW11.1 kmh WSW 11.5 mph18.5 kmh 30.20 in1022.7 mb - 0.00 in0.0 mm 0.00 in0.0 mm
11:00 AM 55.2°F12.9°C 29.3°F-1.5°C 37% 6.9 mph WSW11.1 kmh WSW 10.4 mph16.7 kmh 30.21 in1023.0 mb - 0.00 in0.0 mm 0.00 in0.0 mm
11:10 AM 55.8°F13.2°C 30.5°F-0.8°C 38% 5.8 mph N9.3 kmh N 8.1 mph13.0 kmh 30.20 in1022.7 mb - 0.00 in0.0 mm 0.00 in0.0 mm
11:20 AM 55.7°F13.2°C 31.1°F-0.5°C 39% 5.8 mph WSW9.3 kmh WSW 9.2 mph14.8 kmh 30.21 in1023.0 mb - 0.00 in0.0 mm 0.00 in0.0 mm
11:30 AM 56.2°F13.4°C 27.4°F-2.6°C 33% 2.3 mph SSE3.7 kmh SSE 3.5 mph5.6 kmh 30.20 in1022.7 mb - 0.00 in0.0 mm 0.00 in0.0 mm
11:40 AM 56.3°F13.5°C 31.6°F-0.2°C 39% 5.8 mph ENE9.3 kmh ENE 6.9 mph11.1 kmh 30.20 in1022.7 mb - 0.00 in0.0 mm 0.00 in0.0 mm
11:50 AM 56.7°F13.7°C 30.0°F-1.1°C 36% 3.5 mph NNW5.6 kmh NNW 2.3 mph3.7 kmh 30.21 in1023.0 mb - 0.00 in0.0 mm 0.00 in0.0 mm
12:00 PM 57.2°F14.0°C 29.8°F-1.2°C 35% 2.3 mph N3.7 kmh N 2.3 mph3.7 kmh 30.21 in1023.0 mb - 0.00 in0.0 mm 0.00 in0.0 mm
12:10 PM 56.9°F13.8°C 29.5°F-1.4°C 35% 4.6 mph NE7.4 kmh NE 5.8 mph9.3 kmh 30.21 in1023.0 mb - 0.00 in0.0 mm 0.00 in0.0 mm
12:20 PM 57.5°F14.2°C 30.1°F-1.1°C 35% 4.6 mph SW7.4 kmh SW 5.8 mph9.3 kmh 30.20 in1022.7 mb - 0.00 in0.0 mm 0.00 in0.0 mm
12:30 PM 58.1°F14.5°C 29.9°F-1.2°C 34% 2.3 mph SSE3.7 kmh SSE 5.8 mph9.3 kmh 30.20 in1022.7 mb - 0.00 in0.0 mm 0.00 in0.0 mm
12:40 PM 58.5°F14.7°C 30.9°F-0.6°C 35% 2.3 mph WNW3.7 kmh WNW 9.2 mph14.8 kmh 30.20 in1022.7 mb - 0.00 in0.0 mm 0.00 in0.0 mm
12:50 PM 58.7°F14.8°C 29.6°F-1.3°C 33% 5.8 mph WSW9.3 kmh WSW 8.1 mph13.0 kmh 30.20 in1022.7 mb - 0.00 in0.0 mm 0.00 in0.0 mm
01:00 PM 58.3°F14.6°C 29.3°F-1.5°C 33% 3.5 mph W5.6 kmh W 8.1 mph13.0 kmh 30.19 in1022.4 mb - 0.00 in0.0 mm 0.00 in0.0 mm
01:10 PM 59.5°F15.3°C 33.9°F1.1°C 38% 3.5 mph SE5.6 kmh SE 2.3 mph3.7 kmh 30.19 in1022.4 mb - 0.00 in0.0 mm 0.00 in0.0 mm
01:20 PM 59.4°F15.2°C 29.5°F-1.4°C 32% 3.5 mph NE5.6 kmh NE 8.1 mph13.0 kmh 30.20 in1022.7 mb - 0.00 in0.0 mm 0.00 in0.0 mm
01:30 PM 60.0°F15.6°C 29.3°F-1.5°C 31% 8.1 mph WSW13.0 kmh WSW 9.2 mph14.8 kmh 30.19 in1022.4 mb - 0.00 in0.0 mm 0.00 in0.0 mm
01:40 PM 59.9°F15.5°C 28.3°F-2.1°C 30% 8.1 mph WSW13.0 kmh WSW 9.2 mph14.8 kmh 30.20 in1022.7 mb - 0.00 in0.0 mm 0.00 in0.0 mm
01:50 PM 59.9°F15.5°C 28.3°F-2.1°C 30% 8.1 mph SW13.0 kmh SW 10.4 mph16.7 kmh 30.20 in1022.7 mb - 0.00 in0.0 mm 0.00 in0.0 mm
02:00 PM 60.5°F15.8°C 28.9°F-1.7°C 30% 3.5 mph NNW5.6 kmh NNW 5.8 mph9.3 kmh 30.20 in1022.7 mb - 0.00 in0.0 mm 0.00 in0.0 mm
02:10 PM 60.7°F15.9°C 30.7°F-0.7°C 32% 1.2 mph SW1.9 kmh SW 2.3 mph3.7 kmh 30.20 in1022.7 mb - 0.00 in0.0 mm 0.00 in0.0 mm
02:20 PM 60.6°F15.9°C 29.8°F-1.2°C 31% 3.5 mph SE5.6 kmh SE 5.8 mph9.3 kmh 30.20 in1022.7 mb - 0.00 in0.0 mm 0.00 in0.0 mm
02:30 PM 61.8°F16.6°C 24.6°F-4.1°C 24% 3.5 mph SE5.6 kmh SE 3.5 mph5.6 kmh 30.20 in1022.7 mb - 0.00 in0.0 mm 0.00 in0.0 mm
02:40 PM 61.9°F16.6°C 25.7°F-3.5°C 25% 3.5 mph SW5.6 kmh SW 6.9 mph11.1 kmh 30.20 in1022.7 mb - 0.00 in0.0 mm 0.00 in0.0 mm
02:50 PM 61.9°F16.6°C 26.6°F-3.0°C 26% 6.9 mph W11.1 kmh W 6.9 mph11.1 kmh 30.20 in1022.7 mb - 0.00 in0.0 mm 0.00 in0.0 mm
03:00 PM 62.4°F16.9°C 27.0°F-2.8°C 26% 2.3 mph S3.7 kmh S 3.5 mph5.6 kmh 30.20 in1022.7 mb - 0.00 in0.0 mm 0.00 in0.0 mm
03:10 PM 62.5°F16.9°C 28.1°F-2.2°C 27% 2.3 mph NE3.7 kmh NE 3.5 mph5.6 kmh 30.20 in1022.7 mb - 0.00 in0.0 mm 0.00 in0.0 mm
03:20 PM 62.6°F17.0°C 26.2°F-3.2°C 25% 4.6 mph SSE7.4 kmh SSE 6.9 mph11.1 kmh 30.20 in1022.7 mb - 0.00 in0.0 mm 0.00 in0.0 mm
03:30 PM 63.2°F17.3°C 28.6°F-1.9°C 27% 4.6 mph WSW7.4 kmh WSW 16.1 mph25.9 kmh 30.20 in1022.7 mb - 0.00 in0.0 mm 0.00 in0.0 mm
03:40 PM 63.1°F17.3°C 26.7°F-2.9°C 25% 2.3 mph S3.7 kmh S 5.8 mph9.3 kmh 30.20 in1022.7 mb - 0.00 in0.0 mm 0.00 in0.0 mm
03:50 PM 63.3°F17.4°C 25.8°F-3.4°C 24% 2.3 mph NNW3.7 kmh NNW 5.8 mph9.3 kmh 30.20 in1022.7 mb - 0.00 in0.0 mm 0.00 in0.0 mm
04:00 PM 63.6°F17.6°C 29.8°F-1.2°C 28% 2.3 mph ESE3.7 kmh ESE 2.3 mph3.7 kmh 30.20 in1022.7 mb - 0.00 in0.0 mm 0.00 in0.0 mm
04:10 PM 63.5°F17.5°C 26.0°F-3.3°C 24% 2.3 mph SE3.7 kmh SE 3.5 mph5.6 kmh 30.20 in1022.7 mb - 0.00 in0.0 mm 0.00 in0.0 mm
04:20 PM 63.7°F17.6°C 25.1°F-3.8°C 23% 3.5 mph WSW5.6 kmh WSW 2.3 mph3.7 kmh 30.20 in1022.7 mb - 0.00 in0.0 mm 0.00 in0.0 mm
04:30 PM 63.9°F17.7°C 26.4°F-3.1°C 24% 3.5 mph WSW5.6 kmh WSW 6.9 mph11.1 kmh 30.20 in1022.7 mb - 0.00 in0.0 mm 0.00 in0.0 mm
04:40 PM 64.1°F17.8°C 28.5°F-1.9°C 26% 1.2 mph SW1.9 kmh SW 1.2 mph1.9 kmh 30.20 in1022.7 mb - 0.00 in0.0 mm 0.00 in0.0 mm
04:50 PM 64.4°F18.0°C 27.8°F-2.3°C 25% 2.3 mph SW3.7 kmh SW 3.5 mph5.6 kmh 30.20 in1022.7 mb - 0.00 in0.0 mm 0.00 in0.0 mm
05:00 PM 63.9°F17.7°C 28.3°F-2.1°C 26% 2.3 mph N3.7 kmh N 2.3 mph3.7 kmh 30.21 in1023.0 mb - 0.00 in0.0 mm 0.00 in0.0 mm
05:10 PM 63.3°F17.4°C 26.8°F-2.9°C 25% 2.3 mph SE3.7 kmh SE 2.3 mph3.7 kmh 30.21 in1023.0 mb - 0.00 in0.0 mm 0.00 in0.0 mm
05:20 PM 62.3°F16.8°C 29.6°F-1.3°C 29% 3.5 mph ESE5.6 kmh ESE 5.8 mph9.3 kmh 30.20 in1022.7 mb - 0.00 in0.0 mm 0.00 in0.0 mm
05:30 PM 62.2°F16.8°C 26.9°F-2.8°C 26% 3.5 mph ENE5.6 kmh ENE 5.8 mph9.3 kmh 30.20 in1022.7 mb - 0.00 in0.0 mm 0.00 in0.0 mm
05:40 PM 62.4°F16.9°C 27.0°F-2.8°C 26% 2.3 mph ESE3.7 kmh ESE 2.3 mph3.7 kmh 30.20 in1022.7 mb - 0.00 in0.0 mm 0.00 in0.0 mm
05:50 PM 62.1°F16.7°C 27.7°F-2.4°C 27% 3.5 mph WSW5.6 kmh WSW 3.5 mph5.6 kmh 30.21 in1023.0 mb - 0.00 in0.0 mm 0.00 in0.0 mm
06:00 PM 61.9°F16.6°C 24.7°F-4.1°C 24% 2.3 mph NE3.7 kmh NE 2.3 mph3.7 kmh 30.21 in1023.0 mb - 0.00 in0.0 mm 0.00 in0.0 mm
06:10 PM 61.4°F16.3°C 25.3°F-3.7°C 25% 1.2 mph WNW1.9 kmh WNW 2.3 mph3.7 kmh 30.20 in1022.7 mb - 0.00 in0.0 mm 0.00 in0.0 mm
06:20 PM 60.9°F16.1°C 25.8°F-3.4°C 26% 2.3 mph WNW3.7 kmh WNW 2.3 mph3.7 kmh 30.21 in1023.0 mb - 0.00 in0.0 mm 0.00 in0.0 mm
06:30 PM 59.9°F15.5°C 26.7°F-2.9°C 28% Calm Calm -- 30.20 in1022.7 mb - 0.00 in0.0 mm 0.00 in0.0 mm
06:40 PM 58.7°F14.8°C 28.1°F-2.2°C 31% Calm Calm -- 30.21 in1023.0 mb - 0.00 in0.0 mm 0.00 in0.0 mm
06:50 PM 57.6°F14.2°C 34.0°F1.1°C 41% 4.6 mph SE7.4 kmh SE 5.8 mph9.3 kmh 30.21 in1023.0 mb - 0.00 in0.0 mm 0.00 in0.0 mm
07:00 PM 55.8°F13.2°C 34.7°F1.5°C 45% 5.8 mph ESE9.3 kmh ESE 6.9 mph11.1 kmh 30.21 in1023.0 mb - 0.00 in0.0 mm 0.00 in0.0 mm
07:10 PM 54.0°F12.2°C 33.7°F0.9°C 46% 4.6 mph E7.4 kmh E 5.8 mph9.3 kmh 30.22 in1023.4 mb - 0.00 in0.0 mm 0.00 in0.0 mm
07:20 PM 53.0°F11.7°C 34.3°F1.3°C 49% 2.3 mph ESE3.7 kmh ESE 3.5 mph5.6 kmh 30.22 in1023.4 mb - 0.00 in0.0 mm 0.00 in0.0 mm
07:30 PM 52.3°F11.3°C 33.7°F0.9°C 49% 3.5 mph E5.6 kmh E 3.5 mph5.6 kmh 30.22 in1023.4 mb - 0.00 in0.0 mm 0.00 in0.0 mm
07:40 PM 51.5°F10.8°C 33.4°F0.8°C 50% 2.3 mph ESE3.7 kmh ESE 2.3 mph3.7 kmh 30.22 in1023.4 mb - 0.00 in0.0 mm 0.00 in0.0 mm
07:50 PM 51.1°F10.6°C 33.1°F0.6°C 50% 3.5 mph W5.6 kmh W 2.3 mph3.7 kmh 30.22 in1023.4 mb - 0.00 in0.0 mm 0.00 in0.0 mm
08:00 PM 50.8°F10.4°C 32.3°F0.2°C 49% 3.5 mph S5.6 kmh S 11.5 mph18.5 kmh 30.23 in1023.7 mb - 0.00 in0.0 mm 0.00 in0.0 mm
08:10 PM 50.3°F10.2°C 29.7°F-1.3°C 45% 2.3 mph SE3.7 kmh SE 2.3 mph3.7 kmh 30.23 in1023.7 mb - 0.00 in0.0 mm 0.00 in0.0 mm
08:20 PM 49.7°F9.8°C 29.7°F-1.3°C 46% 3.5 mph SE5.6 kmh SE 2.3 mph3.7 kmh 30.23 in1023.7 mb - 0.00 in0.0 mm 0.00 in0.0 mm
08:30 PM 48.9°F9.4°C 30.5°F-0.8°C 49% 3.5 mph SE5.6 kmh SE 2.3 mph3.7 kmh 30.23 in1023.7 mb - 0.00 in0.0 mm 0.00 in0.0 mm
08:40 PM 48.4°F9.1°C 30.6°F-0.8°C 50% 3.5 mph SE5.6 kmh SE 6.9 mph11.1 kmh 30.24 in1024.0 mb - 0.00 in0.0 mm 0.00 in0.0 mm
08:50 PM 48.3°F9.1°C 30.5°F-0.8°C 50% 1.2 mph NW1.9 kmh NW 2.3 mph3.7 kmh 30.24 in1024.0 mb - 0.00 in0.0 mm 0.00 in0.0 mm
09:00 PM 47.5°F8.6°C 31.2°F-0.4°C 53% 1.2 mph E1.9 kmh E 2.3 mph3.7 kmh 30.24 in1024.0 mb - 0.00 in0.0 mm 0.00 in0.0 mm
09:10 PM 47.2°F8.4°C 31.3°F-0.4°C 54% 2.3 mph SE3.7 kmh SE 2.3 mph3.7 kmh 30.24 in1024.0 mb - 0.00 in0.0 mm 0.00 in0.0 mm
09:20 PM 46.8°F8.2°C 31.4°F-0.3°C 55% 2.3 mph ESE3.7 kmh ESE 2.3 mph3.7 kmh 30.25 in1024.4 mb - 0.00 in0.0 mm 0.00 in0.0 mm
09:30 PM 46.3°F7.9°C 32.7°F0.4°C 59% 1.2 mph ENE1.9 kmh ENE 2.3 mph3.7 kmh 30.25 in1024.4 mb - 0.00 in0.0 mm 0.00 in0.0 mm
09:40 PM 45.7°F7.6°C 33.4°F0.8°C 62% 1.2 mph SE1.9 kmh SE 1.2 mph1.9 kmh 30.25 in1024.4 mb - 0.00 in0.0 mm 0.00 in0.0 mm
09:50 PM 45.0°F7.2°C 33.1°F0.6°C 63% 2.3 mph SSE3.7 kmh SSE 2.3 mph3.7 kmh 30.25 in1024.4 mb - 0.00 in0.0 mm 0.00 in0.0 mm
10:00 PM 45.1°F7.3°C 33.3°F0.7°C 63% 1.2 mph NE1.9 kmh NE 2.3 mph3.7 kmh 30.25 in1024.4 mb - 0.00 in0.0 mm 0.00 in0.0 mm
10:10 PM 45.3°F7.4°C 32.6°F0.3°C 61% 2.3 mph S3.7 kmh S 3.5 mph5.6 kmh 30.25 in1024.4 mb - 0.00 in0.0 mm 0.00 in0.0 mm
10:20 PM 44.9°F7.2°C 32.2°F0.1°C 61% Calm Calm 2.3 mph3.7 kmh 30.26 in1024.7 mb - 0.00 in0.0 mm 0.00 in0.0 mm
10:30 PM 44.2°F6.8°C 31.6°F-0.2°C 61% 2.3 mph S3.7 kmh S 2.3 mph3.7 kmh 30.26 in1024.7 mb - 0.00 in0.0 mm 0.00 in0.0 mm
10:40 PM 44.2°F6.8°C 32.0°F0.0°C 62% 2.3 mph SE3.7 kmh SE 2.3 mph3.7 kmh 30.25 in1024.4 mb - 0.00 in0.0 mm 0.00 in0.0 mm
10:50 PM 43.6°F6.4°C 32.2°F0.1°C 64% Calm Calm -- 30.26 in1024.7 mb - 0.00 in0.0 mm 0.00 in0.0 mm
11:00 PM 42.8°F6.0°C 32.2°F0.1°C 66% Calm Calm -- 30.26 in1024.7 mb - 0.00 in0.0 mm 0.00 in0.0 mm
11:10 PM 42.2°F5.7°C 32.7°F0.4°C 69% 1.2 mph SE1.9 kmh SE 1.2 mph1.9 kmh 30.25 in1024.4 mb - 0.00 in0.0 mm 0.00 in0.0 mm
11:20 PM 41.7°F5.4°C 32.3°F0.2°C 69% Calm Calm -- 30.26 in1024.7 mb - 0.00 in0.0 mm 0.00 in0.0 mm
11:30 PM 41.0°F5.0°C 32.3°F0.2°C 71% Calm Calm -- 30.26 in1024.7 mb - 0.00 in0.0 mm 0.00 in0.0 mm
11:40 PM 40.4°F4.7°C 32.8°F0.4°C 74% Calm Calm -- 30.25 in1024.4 mb - 0.00 in0.0 mm 0.00 in0.0 mm
11:50 PM 40.2°F4.6°C 33.3°F0.7°C 76% Calm Calm -- 30.26 in1024.7 mb - 0.00 in0.0 mm 0.00 in0.0 mm